sensor_id;sensor_type;location;lat;lon;timestamp;pressure;altitude;pressure_sealevel;temperature;humidity
52032;BME280;38044;45.148;39.604;2024-03-08T00:00:09;101334.63;;;1.77;92.53
52032;BME280;38044;45.148;39.604;2024-03-08T00:02:38;101335.88;;;1.74;92.59
52032;BME280;38044;45.148;39.604;2024-03-08T00:05:08;101325.31;;;1.68;92.63
52032;BME280;38044;45.148;39.604;2024-03-08T00:07:37;101342.81;;;1.75;92.78
52032;BME280;38044;45.148;39.604;2024-03-08T00:10:04;101335.50;;;1.71;92.55
52032;BME280;38044;45.148;39.604;2024-03-08T00:12:31;101333.09;;;1.63;92.83
52032;BME280;38044;45.148;39.604;2024-03-08T00:14:57;101338.81;;;1.66;92.70
52032;BME280;38044;45.148;39.604;2024-03-08T00:17:23;101337.97;;;1.66;92.74
52032;BME280;38044;45.148;39.604;2024-03-08T00:19:49;101335.13;;;1.67;93.09
52032;BME280;38044;45.148;39.604;2024-03-08T00:22:18;101332.22;;;1.69;92.79
52032;BME280;38044;45.148;39.604;2024-03-08T00:24:44;101336.09;;;1.73;93.01
52032;BME280;38044;45.148;39.604;2024-03-08T00:27:11;101343.88;;;1.68;93.06
52032;BME280;38044;45.148;39.604;2024-03-08T00:29:37;101322.25;;;1.71;93.11
52032;BME280;38044;45.148;39.604;2024-03-08T00:32:05;101333.44;;;1.73;92.88
52032;BME280;38044;45.148;39.604;2024-03-08T00:34:35;101338.31;;;1.76;92.94
52032;BME280;38044;45.148;39.604;2024-03-08T00:37:03;101318.41;;;1.67;92.85
52032;BME280;38044;45.148;39.604;2024-03-08T00:39:29;101331.22;;;1.70;93.05
52032;BME280;38044;45.148;39.604;2024-03-08T00:41:55;101337.28;;;1.77;92.86
52032;BME280;38044;45.148;39.604;2024-03-08T00:44:21;101319.22;;;1.67;92.70
52032;BME280;38044;45.148;39.604;2024-03-08T00:46:47;101336.72;;;1.75;92.67
52032;BME280;38044;45.148;39.604;2024-03-08T00:49:13;101325.13;;;1.69;92.51
52032;BME280;38044;45.148;39.604;2024-03-08T00:51:39;101322.28;;;1.64;92.83
52032;BME280;38044;45.148;39.604;2024-03-08T00:54:05;101308.84;;;1.59;92.60
52032;BME280;38044;45.148;39.604;2024-03-08T00:56:31;101324.50;;;1.67;92.74
52032;BME280;38044;45.148;39.604;2024-03-08T00:58:59;101308.66;;;1.61;92.74
52032;BME280;38044;45.148;39.604;2024-03-08T01:01:25;101317.59;;;1.66;92.62
52032;BME280;38044;45.148;39.604;2024-03-08T01:03:51;101313.13;;;1.60;92.39
52032;BME280;38044;45.148;39.604;2024-03-08T01:06:17;101316.00;;;1.58;92.56
52032;BME280;38044;45.148;39.604;2024-03-08T01:08:44;101317.22;;;1.56;92.86
52032;BME280;38044;45.148;39.604;2024-03-08T01:11:10;101329.69;;;1.55;92.79
52032;BME280;38044;45.148;39.604;2024-03-08T01:13:38;101316.81;;;1.59;93.15
52032;BME280;38044;45.148;39.604;2024-03-08T01:16:04;101319.06;;;1.55;92.76
52032;BME280;38044;45.148;39.604;2024-03-08T01:18:30;101323.56;;;1.55;92.92
52032;BME280;38044;45.148;39.604;2024-03-08T01:20:56;101310.34;;;1.48;92.84
52032;BME280;38044;45.148;39.604;2024-03-08T01:23:22;101333.09;;;1.63;92.87
52032;BME280;38044;45.148;39.604;2024-03-08T01:25:48;101321.72;;;1.55;92.84
52032;BME280;38044;45.148;39.604;2024-03-08T01:28:17;101331.91;;;1.58;92.82
52032;BME280;38044;45.148;39.604;2024-03-08T01:30:43;101331.09;;;1.58;92.74
52032;BME280;38044;45.148;39.604;2024-03-08T01:33:10;101333.09;;;1.63;92.66
52032;BME280;38044;45.148;39.604;2024-03-08T01:35:37;101313.59;;;1.50;92.72
52032;BME280;38044;45.148;39.604;2024-03-08T01:38:02;101342.84;;;1.69;92.61
52032;BME280;38044;45.148;39.604;2024-03-08T01:40:30;101338.94;;;1.71;92.51
52032;BME280;38044;45.148;39.604;2024-03-08T01:42:56;101339.19;;;1.70;92.25
52032;BME280;38044;45.148;39.604;2024-03-08T01:45:22;101328.34;;;1.71;92.14
52032;BME280;38044;45.148;39.604;2024-03-08T01:47:48;101331.84;;;1.72;92.03
52032;BME280;38044;45.148;39.604;2024-03-08T01:50:14;101328.56;;;1.70;91.66
52032;BME280;38044;45.148;39.604;2024-03-08T01:52:41;101331.00;;;1.71;91.97
52032;BME280;38044;45.148;39.604;2024-03-08T01:55:08;101334.69;;;1.70;91.83
52032;BME280;38044;45.148;39.604;2024-03-08T01:57:35;101328.16;;;1.73;91.94
52032;BME280;38044;45.148;39.604;2024-03-08T02:00:03;101326.97;;;1.62;91.59
52032;BME280;38044;45.148;39.604;2024-03-08T02:02:32;101330.63;;;1.68;91.85
52032;BME280;38044;45.148;39.604;2024-03-08T02:05:00;101344.47;;;1.70;91.60
52032;BME280;38044;45.148;39.604;2024-03-08T02:07:26;101322.34;;;1.57;91.23
52032;BME280;38044;45.148;39.604;2024-03-08T02:09:52;101343.69;;;1.69;91.37
52032;BME280;38044;45.148;39.604;2024-03-08T02:12:18;101341.66;;;1.65;91.42
52032;BME280;38044;45.148;39.604;2024-03-08T02:14:46;101346.56;;;1.61;91.46
52032;BME280;38044;45.148;39.604;2024-03-08T02:17:12;101333.19;;;1.49;91.60
52032;BME280;38044;45.148;39.604;2024-03-08T02:19:38;101335.63;;;1.44;91.58
52032;BME280;38044;45.148;39.604;2024-03-08T02:22:05;101331.53;;;1.48;91.92
52032;BME280;38044;45.148;39.604;2024-03-08T02:24:32;101348.78;;;1.64;91.85
52032;BME280;38044;45.148;39.604;2024-03-08T02:26:59;101338.00;;;1.59;91.75
52032;BME280;38044;45.148;39.604;2024-03-08T02:29:25;101340.47;;;1.61;91.05
52032;BME280;38044;45.148;39.604;2024-03-08T02:31:51;101353.09;;;1.58;90.86
52032;BME280;38044;45.148;39.604;2024-03-08T02:34:18;101344.97;;;1.53;91.04
52032;BME280;38044;45.148;39.604;2024-03-08T02:36:44;101338.66;;;1.48;91.16
52032;BME280;38044;45.148;39.604;2024-03-08T02:39:09;101327.88;;;1.43;90.83
52032;BME280;38044;45.148;39.604;2024-03-08T02:41:36;101343.78;;;1.43;90.94
52032;BME280;38044;45.148;39.604;2024-03-08T02:44:02;101332.00;;;1.39;91.06
52032;BME280;38044;45.148;39.604;2024-03-08T02:46:29;101338.53;;;1.36;90.92
52032;BME280;38044;45.148;39.604;2024-03-08T02:48:55;101349.31;;;1.41;90.84
52032;BME280;38044;45.148;39.604;2024-03-08T02:51:21;101354.00;;;1.39;91.08
52032;BME280;38044;45.148;39.604;2024-03-08T02:53:47;101355.22;;;1.37;91.27
52032;BME280;38044;45.148;39.604;2024-03-08T02:56:15;101347.50;;;1.35;91.19
52032;BME280;38044;45.148;39.604;2024-03-08T02:58:42;101330.63;;;1.29;91.21
52032;BME280;38044;45.148;39.604;2024-03-08T03:01:09;101330.38;;;1.31;91.07
52032;BME280;38044;45.148;39.604;2024-03-08T03:03:36;101332.03;;;1.32;91.21
52032;BME280;38044;45.148;39.604;2024-03-08T03:06:02;101338.94;;;1.33;91.08
52032;BME280;38044;45.148;39.604;2024-03-08T03:08:28;101346.28;;;1.31;91.04
52032;BME280;38044;45.148;39.604;2024-03-08T03:10:54;101338.94;;;1.33;91.57
52032;BME280;38044;45.148;39.604;2024-03-08T03:13:22;101335.31;;;1.27;91.72
52032;BME280;38044;45.148;39.604;2024-03-08T03:15:49;101343.81;;;1.36;91.81
52032;BME280;38044;45.148;39.604;2024-03-08T03:18:15;101328.16;;;1.28;91.71
52032;BME280;38044;45.148;39.604;2024-03-08T03:20:41;101341.59;;;1.33;91.59
52032;BME280;38044;45.148;39.604;2024-03-08T03:23:10;101331.00;;;1.33;91.56
52032;BME280;38044;45.148;39.604;2024-03-08T03:25:39;101331.63;;;1.28;91.44
52032;BME280;38044;45.148;39.604;2024-03-08T03:28:07;101335.25;;;1.34;91.42
52032;BME280;38044;45.148;39.604;2024-03-08T03:30:33;101328.78;;;1.30;91.85
52032;BME280;38044;45.148;39.604;2024-03-08T03:33:00;101330.38;;;1.38;91.77
52032;BME280;38044;45.148;39.604;2024-03-08T03:35:27;101327.13;;;1.35;91.71
52032;BME280;38044;45.148;39.604;2024-03-08T03:37:54;101333.22;;;1.36;91.56
52032;BME280;38044;45.148;39.604;2024-03-08T03:40:33;101312.88;;;1.30;91.68
52032;BME280;38044;45.148;39.604;2024-03-08T03:42:59;101332.81;;;1.39;91.44
52032;BME280;38044;45.148;39.604;2024-03-08T03:45:25;101334.47;;;1.33;91.70
52032;BME280;38044;45.148;39.604;2024-03-08T03:47:51;101344.25;;;1.33;91.83
52032;BME280;38044;45.148;39.604;2024-03-08T03:50:21;101343.41;;;1.39;91.78
52032;BME280;38044;45.148;39.604;2024-03-08T03:52:48;101334.03;;;1.37;91.75
52032;BME280;38044;45.148;39.604;2024-03-08T03:55:14;101333.84;;;1.31;91.86
52032;BME280;38044;45.148;39.604;2024-03-08T03:57:40;101330.81;;;1.34;91.40
52032;BME280;38044;45.148;39.604;2024-03-08T04:00:07;101345.03;;;1.40;91.52
52032;BME280;38044;45.148;39.604;2024-03-08T04:02:38;101339.72;;;1.40;91.72
52032;BME280;38044;45.148;39.604;2024-03-08T04:05:05;101345.81;;;1.47;91.98
52032;BME280;38044;45.148;39.604;2024-03-08T04:07:32;101343.94;;;1.54;92.33
52032;BME280;38044;45.148;39.604;2024-03-08T04:09:57;101343.94;;;1.54;92.14
52032;BME280;38044;45.148;39.604;2024-03-08T04:12:23;101351.88;;;1.54;91.64
52032;BME280;38044;45.148;39.604;2024-03-08T04:14:49;101339.91;;;1.45;91.35
52032;BME280;38044;45.148;39.604;2024-03-08T04:17:15;101342.56;;;1.45;91.56
52032;BME280;38044;45.148;39.604;2024-03-08T04:19:42;101356.78;;;1.57;91.27
52032;BME280;38044;45.148;39.604;2024-03-08T04:22:08;101361.06;;;1.58;91.17
52032;BME280;38044;45.148;39.604;2024-03-08T04:24:34;101364.91;;;1.63;90.93
52032;BME280;38044;45.148;39.604;2024-03-08T04:27:04;101359.59;;;1.63;90.96
52032;BME280;38044;45.148;39.604;2024-03-08T04:29:33;101356.56;;;1.59;91.04
52032;BME280;38044;45.148;39.604;2024-03-08T04:32:06;101368.13;;;1.71;90.77
52032;BME280;38044;45.148;39.604;2024-03-08T04:34:38;101372.00;;;1.69;90.86
52032;BME280;38044;45.148;39.604;2024-03-08T04:37:07;101370.19;;;1.63;90.95
52032;BME280;38044;45.148;39.604;2024-03-08T04:39:36;101365.69;;;1.70;90.48
52032;BME280;38044;45.148;39.604;2024-03-08T04:42:02;101374.06;;;1.67;90.24
52032;BME280;38044;45.148;39.604;2024-03-08T04:44:30;101371.66;;;1.58;90.12
52032;BME280;38044;45.148;39.604;2024-03-08T04:46:57;101369.38;;;1.62;89.93
52032;BME280;38044;45.148;39.604;2024-03-08T04:49:22;101364.56;;;1.52;90.24
52032;BME280;38044;45.148;39.604;2024-03-08T04:51:48;101382.00;;;1.67;89.90
52032;BME280;38044;45.148;39.604;2024-03-08T04:54:14;101367.38;;;1.57;89.50
52032;BME280;38044;45.148;39.604;2024-03-08T04:56:40;101379.19;;;1.62;89.55
52032;BME280;38044;45.148;39.604;2024-03-08T04:59:06;101367.38;;;1.57;89.27
52032;BME280;38044;45.148;39.604;2024-03-08T05:01:34;101380.22;;;1.61;89.02
52032;BME280;38044;45.148;39.604;2024-03-08T05:04:03;101384.06;;;1.65;89.07
52032;BME280;38044;45.148;39.604;2024-03-08T05:06:29;101380.38;;;1.66;88.62
52032;BME280;38044;45.148;39.604;2024-03-08T05:08:56;101377.56;;;1.61;88.61
52032;BME280;38044;45.148;39.604;2024-03-08T05:11:21;101378.16;;;1.63;88.43
52032;BME280;38044;45.148;39.604;2024-03-08T05:13:47;101377.94;;;1.64;88.26
52032;BME280;38044;45.148;39.604;2024-03-08T05:16:13;101382.88;;;1.61;88.35
52032;BME280;38044;45.148;39.604;2024-03-08T05:18:41;101366.41;;;1.52;89.04
52032;BME280;38044;45.148;39.604;2024-03-08T05:21:10;101382.25;;;1.58;89.26
52032;BME280;38044;45.148;39.604;2024-03-08T05:23:38;101375.16;;;1.46;89.63
52032;BME280;38044;45.148;39.604;2024-03-08T05:26:05;101370.66;;;1.53;89.16
52032;BME280;38044;45.148;39.604;2024-03-08T05:28:31;101401.22;;;1.55;89.19
52032;BME280;38044;45.148;39.604;2024-03-08T05:30:56;101397.13;;;1.60;89.13
52032;BME280;38044;45.148;39.604;2024-03-08T05:33:22;101400.75;;;1.65;88.95
52032;BME280;38044;45.148;39.604;2024-03-08T05:35:49;101397.94;;;1.60;89.03
52032;BME280;38044;45.148;39.604;2024-03-08T05:38:15;101399.53;;;1.68;88.58
52032;BME280;38044;45.148;39.604;2024-03-08T05:40:41;101397.94;;;1.60;88.57
52032;BME280;38044;45.148;39.604;2024-03-08T05:43:08;101407.59;;;1.41;89.08
52032;BME280;38044;45.148;39.604;2024-03-08T05:45:34;101399.00;;;1.46;89.36
52032;BME280;38044;45.148;39.604;2024-03-08T05:48:00;101402.22;;;1.54;89.25
52032;BME280;38044;45.148;39.604;2024-03-08T05:50:26;101412.59;;;1.63;88.50
52032;BME280;38044;45.148;39.604;2024-03-08T05:52:55;101414.66;;;1.61;88.24
52032;BME280;38044;45.148;39.604;2024-03-08T05:55:22;101406.53;;;1.55;88.17
52032;BME280;38044;45.148;39.604;2024-03-08T05:57:50;101426.88;;;1.62;88.08
52032;BME280;38044;45.148;39.604;2024-03-08T06:00:16;101414.47;;;1.55;88.40
52032;BME280;38044;45.148;39.604;2024-03-08T06:02:42;101422.78;;;1.66;88.20
52032;BME280;38044;45.148;39.604;2024-03-08T06:05:09;101415.44;;;1.68;87.58
52032;BME280;38044;45.148;39.604;2024-03-08T06:07:36;101417.91;;;1.63;87.65
52032;BME280;38044;45.148;39.604;2024-03-08T06:10:02;101415.25;;;1.63;88.19
52032;BME280;38044;45.148;39.604;2024-03-08T06:12:28;101414.41;;;1.69;88.66
52032;BME280;38044;45.148;39.604;2024-03-08T06:14:58;101417.47;;;1.72;88.21
52032;BME280;38044;45.148;39.604;2024-03-08T06:17:24;101409.94;;;1.69;87.97
52032;BME280;38044;45.148;39.604;2024-03-08T06:19:51;101417.44;;;1.79;88.03
52032;BME280;38044;45.148;39.604;2024-03-08T06:22:17;101411.69;;;1.82;87.96
52032;BME280;38044;45.148;39.604;2024-03-08T06:24:45;101407.69;;;1.73;88.09
52032;BME280;38044;45.148;39.604;2024-03-08T06:27:11;101405.97;;;1.85;87.48
52032;BME280;38044;45.148;39.604;2024-03-08T06:29:37;101420.22;;;1.91;87.47
52032;BME280;38044;45.148;39.604;2024-03-08T06:32:03;101417.81;;;1.89;86.94
52032;BME280;38044;45.148;39.604;2024-03-08T06:34:29;101419.22;;;1.85;87.07
52032;BME280;38044;45.148;39.604;2024-03-08T06:36:54;101413.31;;;1.83;87.40
52032;BME280;38044;45.148;39.604;2024-03-08T06:39:26;101420.25;;;1.84;87.25
52032;BME280;38044;45.148;39.604;2024-03-08T06:41:52;101419.41;;;1.90;86.64
52032;BME280;38044;45.148;39.604;2024-03-08T06:44:18;101421.03;;;1.91;86.51
52032;BME280;38044;45.148;39.604;2024-03-08T06:46:47;101410.94;;;1.75;87.05
52032;BME280;38044;45.148;39.604;2024-03-08T06:49:14;101405.44;;;1.70;87.03
52032;BME280;38044;45.148;39.604;2024-03-08T06:51:41;101410.09;;;1.74;86.84
52032;BME280;38044;45.148;39.604;2024-03-08T06:54:07;101427.22;;;1.78;86.65
52032;BME280;38044;45.148;39.604;2024-03-08T06:56:34;101419.88;;;1.74;86.82
52032;BME280;38044;45.148;39.604;2024-03-08T06:59:00;101425.75;;;1.83;86.05
52032;BME280;38044;45.148;39.604;2024-03-08T07:01:29;101414.00;;;1.72;86.31
52032;BME280;38044;45.148;39.604;2024-03-08T07:03:58;101430.25;;;1.82;85.72
52032;BME280;38044;45.148;39.604;2024-03-08T07:06:23;101420.31;;;1.71;86.33
52032;BME280;38044;45.148;39.604;2024-03-08T07:08:49;101428.47;;;1.76;86.31
52032;BME280;38044;45.148;39.604;2024-03-08T07:11:15;101436.50;;;1.94;86.28
52032;BME280;38044;45.148;39.604;2024-03-08T07:13:45;101424.91;;;1.95;85.65
52032;BME280;38044;45.148;39.604;2024-03-08T07:16:11;101432.81;;;2.02;85.57
52032;BME280;38044;45.148;39.604;2024-03-08T07:18:37;101436.44;;;2.08;85.42
52032;BME280;38044;45.148;39.604;2024-03-08T07:21:09;101422.75;;;2.11;85.31
52032;BME280;38044;45.148;39.604;2024-03-08T07:23:38;101435.56;;;2.20;85.03
52032;BME280;38044;45.148;39.604;2024-03-08T07:26:23;101435.97;;;2.24;84.71
52032;BME280;38044;45.148;39.604;2024-03-08T07:28:48;101423.31;;;2.19;84.00
52032;BME280;38044;45.148;39.604;2024-03-08T07:31:14;101428.97;;;2.30;84.28
52032;BME280;38044;45.148;39.604;2024-03-08T07:33:40;101422.03;;;2.29;84.52
52032;BME280;38044;45.148;39.604;2024-03-08T07:36:06;101427.47;;;2.40;84.11
52032;BME280;38044;45.148;39.604;2024-03-08T07:38:32;101420.75;;;2.38;83.56
52032;BME280;38044;45.148;39.604;2024-03-08T07:40:58;101427.63;;;2.45;83.43
52032;BME280;38044;45.148;39.604;2024-03-08T07:43:24;101421.41;;;2.33;83.55
52032;BME280;38044;45.148;39.604;2024-03-08T07:45:50;101431.75;;;2.41;83.65
52032;BME280;38044;45.148;39.604;2024-03-08T07:48:18;101439.53;;;2.36;83.41
52032;BME280;38044;45.148;39.604;2024-03-08T07:50:44;101427.69;;;2.39;83.29
52032;BME280;38044;45.148;39.604;2024-03-08T07:53:10;101430.53;;;2.37;83.08
52032;BME280;38044;45.148;39.604;2024-03-08T07:55:36;101443.19;;;2.42;83.54
52032;BME280;38044;45.148;39.604;2024-03-08T07:58:02;101445.19;;;2.46;83.06
52032;BME280;38044;45.148;39.604;2024-03-08T08:00:29;101430.13;;;2.40;83.13
52032;BME280;38044;45.148;39.604;2024-03-08T08:02:56;101438.25;;;2.45;83.19
52032;BME280;38044;45.148;39.604;2024-03-08T08:05:22;101442.69;;;2.52;82.78
52032;BME280;38044;45.148;39.604;2024-03-08T08:07:48;101451.63;;;2.57;82.85
52032;BME280;38044;45.148;39.604;2024-03-08T08:10:16;101439.84;;;2.53;82.60
52032;BME280;38044;45.148;39.604;2024-03-08T08:12:48;101453.91;;;2.54;82.56
52032;BME280;38044;45.148;39.604;2024-03-08T08:15:14;101441.94;;;2.44;82.91
52032;BME280;38044;45.148;39.604;2024-03-08T08:17:44;101442.75;;;2.45;83.47
52032;BME280;38044;45.148;39.604;2024-03-08T08:20:11;101435.78;;;2.19;83.76
52032;BME280;38044;45.148;39.604;2024-03-08T08:22:42;101446.13;;;2.27;85.12
52032;BME280;38044;45.148;39.604;2024-03-08T08:25:11;101451.03;;;2.30;85.05
52032;BME280;38044;45.148;39.604;2024-03-08T08:27:38;101444.25;;;2.34;84.49
52032;BME280;38044;45.148;39.604;2024-03-08T08:30:11;101439.84;;;2.53;83.88
52032;BME280;38044;45.148;39.604;2024-03-08T08:32:37;101441.16;;;2.37;83.53
52032;BME280;38044;45.148;39.604;2024-03-08T08:35:05;101447.31;;;2.38;83.38
52032;BME280;38044;45.148;39.604;2024-03-08T08:37:32;101443.59;;;2.39;83.81
52032;BME280;38044;45.148;39.604;2024-03-08T08:39:59;101447.06;;;2.39;84.50
52032;BME280;38044;45.148;39.604;2024-03-08T08:42:31;101446.19;;;2.52;83.79
52032;BME280;38044;45.148;39.604;2024-03-08T08:44:57;101450.81;;;2.57;83.56
52032;BME280;38044;45.148;39.604;2024-03-08T08:47:23;101447.91;;;2.65;82.76
52032;BME280;38044;45.148;39.604;2024-03-08T08:49:49;101438.34;;;2.64;83.02
52032;BME280;38044;45.148;39.604;2024-03-08T08:52:16;101447.03;;;2.71;82.61
52032;BME280;38044;45.148;39.604;2024-03-08T08:54:43;101444.44;;;2.64;81.93
52032;BME280;38044;45.148;39.604;2024-03-08T08:57:10;101437.28;;;2.65;82.20
52032;BME280;38044;45.148;39.604;2024-03-08T08:59:36;101433.41;;;2.67;81.88
52032;BME280;38044;45.148;39.604;2024-03-08T09:02:07;101442.88;;;2.82;81.71
52032;BME280;38044;45.148;39.604;2024-03-08T09:04:34;101431.53;;;2.68;82.13
52032;BME280;38044;45.148;39.604;2024-03-08T09:07:01;101446.22;;;2.70;82.42
52032;BME280;38044;45.148;39.604;2024-03-08T09:09:27;101450.78;;;2.63;83.01
52032;BME280;38044;45.148;39.604;2024-03-08T09:12:09;101448.78;;;2.59;82.75
52032;BME280;38044;45.148;39.604;2024-03-08T09:14:41;101456.56;;;2.54;83.70
52032;BME280;38044;45.148;39.604;2024-03-08T09:17:07;101459.81;;;2.56;84.59
52032;BME280;38044;45.148;39.604;2024-03-08T09:19:37;101453.66;;;2.62;84.76
52032;BME280;38044;45.148;39.604;2024-03-08T09:22:04;101454.59;;;2.42;84.25
52032;BME280;38044;45.148;39.604;2024-03-08T09:24:30;101439.53;;;2.36;85.01
52032;BME280;38044;45.148;39.604;2024-03-08T09:26:56;101457.81;;;2.51;84.96
52032;BME280;38044;45.148;39.604;2024-03-08T09:29:24;101462.59;;;2.67;84.17
52032;BME280;38044;45.148;39.604;2024-03-08T09:31:50;101444.66;;;2.63;83.77
52032;BME280;38044;45.148;39.604;2024-03-08T09:34:17;101460.06;;;2.79;83.52
52032;BME280;38044;45.148;39.604;2024-03-08T09:36:44;101470.28;;;2.76;83.55
52032;BME280;38044;45.148;39.604;2024-03-08T09:39:10;101462.66;;;2.61;83.69
52032;BME280;38044;45.148;39.604;2024-03-08T09:41:43;101467.19;;;2.54;84.30
52032;BME280;38044;45.148;39.604;2024-03-08T09:44:09;101472.44;;;2.60;84.14
52032;BME280;38044;45.148;39.604;2024-03-08T09:46:35;101475.25;;;2.72;83.87
52032;BME280;38044;45.148;39.604;2024-03-08T09:49:01;101455.50;;;2.61;83.37
52032;BME280;38044;45.148;39.604;2024-03-08T09:51:28;101462.53;;;2.74;83.48
52032;BME280;38044;45.148;39.604;2024-03-08T09:53:54;101454.63;;;2.92;82.75
52032;BME280;38044;45.148;39.604;2024-03-08T09:56:22;101456.59;;;3.04;83.03
52032;BME280;38044;45.148;39.604;2024-03-08T09:58:49;101456.69;;;2.90;82.75
52032;BME280;38044;45.148;39.604;2024-03-08T10:01:38;101451.97;;;2.92;82.83
52032;BME280;38044;45.148;39.604;2024-03-08T10:04:04;101434.91;;;2.82;82.48
52032;BME280;38044;45.148;39.604;2024-03-08T10:06:30;101440.66;;;3.04;83.22
52032;BME280;38044;45.148;39.604;2024-03-08T10:08:59;101457.03;;;3.01;82.69
52032;BME280;38044;45.148;39.604;2024-03-08T10:11:25;101431.44;;;3.06;82.54
52032;BME280;38044;45.148;39.604;2024-03-08T10:13:52;101442.13;;;3.18;82.29
52032;BME280;38044;45.148;39.604;2024-03-08T10:16:18;101435.22;;;3.35;82.40
52032;BME280;38044;45.148;39.604;2024-03-08T10:18:47;101433.19;;;3.12;81.91
52032;BME280;38044;45.148;39.604;2024-03-08T10:21:12;101446.41;;;3.01;82.28
52032;BME280;38044;45.148;39.604;2024-03-08T10:23:42;101457.38;;;3.04;82.57
52032;BME280;38044;45.148;39.604;2024-03-08T10:26:16;101455.50;;;3.30;83.21
52032;BME280;38044;45.148;39.604;2024-03-08T10:28:45;101456.38;;;3.60;82.64
52032;BME280;38044;45.148;39.604;2024-03-08T10:31:11;101449.22;;;3.24;81.83
52032;BME280;38044;45.148;39.604;2024-03-08T10:33:37;101455.16;;;3.26;81.92
52032;BME280;38044;45.148;39.604;2024-03-08T10:36:10;101456.63;;;3.41;82.20
52032;BME280;38044;45.148;39.604;2024-03-08T10:38:37;101444.34;;;3.39;81.64
52032;BME280;38044;45.148;39.604;2024-03-08T10:41:06;101440.28;;;3.37;80.85
52032;BME280;38044;45.148;39.604;2024-03-08T10:46:52;101442.94;;;3.74;79.85
52032;BME280;38044;45.148;39.604;2024-03-08T10:49:25;101438.16;;;3.64;80.45
52032;BME280;38044;45.148;39.604;2024-03-08T10:51:56;101439.16;;;3.63;80.00
52032;BME280;38044;45.148;39.604;2024-03-08T10:54:25;101442.88;;;3.62;80.40
52032;BME280;38044;45.148;39.604;2024-03-08T10:56:52;101438.44;;;3.56;79.41
52032;BME280;38044;45.148;39.604;2024-03-08T10:59:19;101438.06;;;3.71;79.68
52032;BME280;38044;45.148;39.604;2024-03-08T11:01:46;101442.97;;;3.55;79.24
52032;BME280;38044;45.148;39.604;2024-03-08T11:04:12;101435.94;;;3.43;79.60
52032;BME280;38044;45.148;39.604;2024-03-08T11:09:37;101439.22;;;3.75;80.43
52032;BME280;38044;45.148;39.604;2024-03-08T11:12:25;101441.69;;;3.76;80.09
52032;BME280;38044;45.148;39.604;2024-03-08T11:14:56;101431.66;;;3.42;79.54
52032;BME280;38044;45.148;39.604;2024-03-08T11:19:58;101436.97;;;3.60;79.85
52032;BME280;38044;45.148;39.604;2024-03-08T11:22:33;101427.81;;;3.56;79.82
52032;BME280;38044;45.148;39.604;2024-03-08T11:25:02;101437.09;;;3.65;79.53
52032;BME280;38044;45.148;39.604;2024-03-08T11:27:29;101438.50;;;3.68;79.69
52032;BME280;38044;45.148;39.604;2024-03-08T11:30:01;101444.44;;;4.00;79.18
52032;BME280;38044;45.148;39.604;2024-03-08T11:32:46;101443.19;;;4.02;77.88
52032;BME280;38044;45.148;39.604;2024-03-08T11:35:22;101444.38;;;4.06;78.41
52032;BME280;38044;45.148;39.604;2024-03-08T11:37:49;101427.56;;;3.76;77.50
52032;BME280;38044;45.148;39.604;2024-03-08T11:40:21;101437.50;;;3.99;77.83
52032;BME280;38044;45.148;39.604;2024-03-08T11:42:51;101439.31;;;3.87;77.90
52032;BME280;38044;45.148;39.604;2024-03-08T11:45:18;101430.31;;;3.69;78.19
52032;BME280;38044;45.148;39.604;2024-03-08T11:47:46;101431.06;;;3.58;79.44
52032;BME280;38044;45.148;39.604;2024-03-08T11:50:13;101435.03;;;3.67;80.01
52032;BME280;38044;45.148;39.604;2024-03-08T11:52:40;101429.50;;;3.69;80.14
52032;BME280;38044;45.148;39.604;2024-03-08T11:55:06;101417.75;;;3.76;79.20
52032;BME280;38044;45.148;39.604;2024-03-08T11:57:32;101419.09;;;3.67;79.51
52032;BME280;38044;45.148;39.604;2024-03-08T11:59:59;101404.03;;;3.61;79.81
52032;BME280;38044;45.148;39.604;2024-03-08T12:02:35;101425.88;;;3.63;79.21
52032;BME280;38044;45.148;39.604;2024-03-08T12:05:04;101421.91;;;3.72;79.47
52032;BME280;38044;45.148;39.604;2024-03-08T12:07:30;101426.91;;;3.62;79.06
52032;BME280;38044;45.148;39.604;2024-03-08T12:10:34;101422.59;;;3.79;80.19
52032;BME280;38044;45.148;39.604;2024-03-08T12:13:01;101429.88;;;3.54;79.38
52032;BME280;38044;45.148;39.604;2024-03-08T12:15:29;101408.16;;;3.57;79.15
52032;BME280;38044;45.148;39.604;2024-03-08T12:17:58;101417.63;;;3.53;78.88
52032;BME280;38044;45.148;39.604;2024-03-08T12:20:27;101406.63;;;3.31;79.94
52032;BME280;38044;45.148;39.604;2024-03-08T12:23:15;101417.16;;;3.37;79.84
52032;BME280;38044;45.148;39.604;2024-03-08T12:25:42;101425.16;;;3.37;79.76
52032;BME280;38044;45.148;39.604;2024-03-08T12:28:12;101414.53;;;3.56;80.23
52032;BME280;38044;45.148;39.604;2024-03-08T12:30:50;101418.66;;;3.70;79.66
52032;BME280;38044;45.148;39.604;2024-03-08T12:33:21;101415.56;;;3.55;78.96
52032;BME280;38044;45.148;39.604;2024-03-08T12:35:52;101423.22;;;3.63;79.53
52032;BME280;38044;45.148;39.604;2024-03-08T12:38:21;101403.44;;;3.59;79.59
52032;BME280;38044;45.148;39.604;2024-03-08T12:40:59;101409.75;;;3.76;79.48
52032;BME280;38044;45.148;39.604;2024-03-08T12:43:31;101406.25;;;3.64;79.77
52032;BME280;38044;45.148;39.604;2024-03-08T12:45:59;101394.16;;;3.50;79.46
52032;BME280;38044;45.148;39.604;2024-03-08T12:48:25;101412.75;;;3.50;79.90
52032;BME280;38044;45.148;39.604;2024-03-08T12:50:51;101404.34;;;3.53;79.57
52032;BME280;38044;45.148;39.604;2024-03-08T12:53:17;101385.16;;;3.32;79.70
52032;BME280;38044;45.148;39.604;2024-03-08T12:55:43;101394.16;;;3.50;79.80
52032;BME280;38044;45.148;39.604;2024-03-08T12:58:09;101404.03;;;3.61;80.02
52032;BME280;38044;45.148;39.604;2024-03-08T13:00:35;101410.97;;;3.62;80.27